Time;durP1;ratioP1;P1;durP2;ratioP2;P2;SDS_P1;SDS_P2;PMS_P1;PMS_P2;Temp;Humidity;BMP_temperature;BMP_pressure;BME280_temperature;BME280_humidity;BME280_pressure;Samples;Min_cycle;Max_cycle;Signal;HPM_P1;HPM_P2
2024/03/18 00:00:52;;;;;;;21.75;3.10;;;;;;;;;;5073219;28;20043;-33
2024/03/18 00:03:20;;;;;;;21.83;3.00;;;;;;;;;;5075765;28;20505;-33
2024/03/18 00:05:47;;;;;;;23.85;3.55;;;;;;;;;;5072601;28;20417;-35
2024/03/18 00:08:14;;;;;;;15.80;2.90;;;;;;;;;;5072455;28;20422;-35
2024/03/18 00:10:41;;;;;;;18.35;2.92;;;;;;;;;;5072359;28;20037;-36
2024/03/18 00:13:08;;;;;;;24.58;3.90;;;;;;;;;;5068890;28;20181;-35
2024/03/18 00:15:35;;;;;;;21.40;3.00;;;;;;;;;;5068061;28;20078;-35
2024/03/18 00:18:03;;;;;;;16.05;2.95;;;;;;;;;;5073408;28;20024;-33
2024/03/18 00:20:30;;;;;;;16.05;3.13;;;;;;;;;;5088567;28;20820;-33
2024/03/18 00:22:57;;;;;;;21.23;3.33;;;;;;;;;;5072827;28;20131;-35
2024/03/18 00:25:24;;;;;;;19.38;3.08;;;;;;;;;;5071522;28;20032;-34
2024/03/18 00:27:51;;;;;;;21.08;3.67;;;;;;;;;;5073140;28;20083;-35
2024/03/18 00:30:18;;;;;;;17.45;3.40;;;;;;;;;;5072811;28;20051;-34
2024/03/18 00:32:45;;;;;;;15.90;3.58;;;;;;;;;;5070911;28;20040;-35
2024/03/18 00:35:16;;;;;;;15.68;3.67;;;;;;;;;;5066866;28;20033;-36
2024/03/18 00:37:43;;;;;;;19.13;3.03;;;;;;;;;;5053803;28;20067;-33
2024/03/18 00:40:11;;;;;;;17.50;4.47;;;;;;;;;;5068891;28;20036;-33
2024/03/18 00:42:38;;;;;;;16.98;3.22;;;;;;;;;;5070450;28;20113;-35
2024/03/18 00:45:06;;;;;;;15.55;3.55;;;;;;;;;;5057431;28;20036;-34
2024/03/18 00:47:33;;;;;;;17.73;4.15;;;;;;;;;;5063517;28;20040;-35
2024/03/18 00:50:00;;;;;;;19.77;4.63;;;;;;;;;;5060473;28;20474;-35
2024/03/18 00:52:27;;;;;;;15.68;4.07;;;;;;;;;;5070618;28;20031;-34
2024/03/18 00:55:01;;;;;;;20.75;4.05;;;;;;;;;;5033440;28;20621;-35
2024/03/18 00:57:34;;;;;;;15.05;3.97;;;;;;;;;;5013676;28;20088;-36
2024/03/18 01:00:06;;;;;;;17.42;3.95;;;;;;;;;;5030718;28;20565;-36
2024/03/18 01:02:33;;;;;;;16.00;4.47;;;;;;;;;;5031981;28;20037;-36
2024/03/18 01:05:00;;;;;;;17.85;4.60;;;;;;;;;;5032514;28;20029;-35
2024/03/18 01:07:27;;;;;;;16.80;4.63;;;;;;;;;;5027039;28;20128;-33
2024/03/18 01:09:54;;;;;;;12.68;4.10;;;;;;;;;;5019625;28;20120;-33
2024/03/18 01:12:21;;;;;;;15.45;3.75;;;;;;;;;;5032025;28;20080;-33
2024/03/18 01:14:48;;;;;;;10.23;3.85;;;;;;;;;;5016154;28;20033;-32
2024/03/18 01:17:15;;;;;;;12.43;3.88;;;;;;;;;;5023421;28;20387;-33
2024/03/18 01:19:45;;;;;;;20.48;4.22;;;;;;;;;;5015810;28;20034;-32
2024/03/18 01:22:12;;;;;;;11.43;4.35;;;;;;;;;;5017365;28;20444;-34
2024/03/18 01:24:41;;;;;;;11.70;4.00;;;;;;;;;;5014476;28;20089;-35
2024/03/18 01:27:12;;;;;;;13.25;3.78;;;;;;;;;;5016671;28;20523;-35
2024/03/18 01:29:39;;;;;;;14.75;4.13;;;;;;;;;;5031140;28;20061;-35
2024/03/18 01:32:06;;;;;;;18.20;4.45;;;;;;;;;;5029059;28;20029;-34
2024/03/18 01:34:33;;;;;;;16.83;3.80;;;;;;;;;;5028982;28;20040;-33
2024/03/18 01:37:00;;;;;;;8.45;3.50;;;;;;;;;;5031478;28;20033;-35
2024/03/18 01:39:27;;;;;;;14.70;4.03;;;;;;;;;;5032052;28;20025;-35
2024/03/18 01:41:54;;;;;;;9.18;3.95;;;;;;;;;;5013022;28;20030;-34
2024/03/18 01:44:21;;;;;;;9.68;3.50;;;;;;;;;;5032955;28;20025;-36
2024/03/18 01:46:48;;;;;;;11.10;3.75;;;;;;;;;;5023101;28;20049;-33
2024/03/18 01:49:15;;;;;;;10.30;3.92;;;;;;;;;;5021099;28;20075;-36
2024/03/18 01:51:42;;;;;;;11.07;4.05;;;;;;;;;;5031572;28;20033;-34
2024/03/18 01:54:10;;;;;;;18.35;4.25;;;;;;;;;;5031198;28;20037;-33
2024/03/18 01:56:37;;;;;;;15.13;4.78;;;;;;;;;;5030422;28;20041;-32
2024/03/18 01:59:07;;;;;;;18.52;4.07;;;;;;;;;;5030824;28;20017;-35
2024/03/18 02:01:34;;;;;;;10.00;4.15;;;;;;;;;;5031297;28;20108;-32
2024/03/18 02:04:11;;;;;;;11.25;3.60;;;;;;;;;;5031274;28;20036;-34
2024/03/18 02:06:38;;;;;;;9.38;3.80;;;;;;;;;;5029406;28;20499;-34
2024/03/18 02:09:06;;;;;;;16.55;4.05;;;;;;;;;;5030759;28;20162;-34
2024/03/18 02:11:34;;;;;;;12.35;3.97;;;;;;;;;;5029338;28;20030;-33
2024/03/18 02:14:01;;;;;;;13.63;3.80;;;;;;;;;;5031176;28;20122;-34
2024/03/18 02:16:28;;;;;;;12.00;4.18;;;;;;;;;;5030819;28;20060;-37
2024/03/18 02:18:55;;;;;;;14.57;3.70;;;;;;;;;;5030953;28;20132;-34
2024/03/18 02:21:22;;;;;;;9.10;3.60;;;;;;;;;;5030898;28;20491;-34
2024/03/18 02:23:49;;;;;;;8.48;3.65;;;;;;;;;;5030836;28;20021;-35
2024/03/18 02:26:16;;;;;;;10.77;3.53;;;;;;;;;;5030690;28;20091;-35
2024/03/18 02:28:44;;;;;;;11.18;3.38;;;;;;;;;;5030716;28;20040;-34
2024/03/18 02:31:11;;;;;;;9.10;3.42;;;;;;;;;;5028173;28;20056;-32
2024/03/18 02:33:38;;;;;;;8.80;3.53;;;;;;;;;;5031000;28;20068;-34
2024/03/18 02:36:05;;;;;;;9.35;3.60;;;;;;;;;;5030856;28;20021;-32
2024/03/18 02:38:32;;;;;;;12.40;3.25;;;;;;;;;;5027668;28;20084;-35
2024/03/18 02:40:59;;;;;;;10.02;3.28;;;;;;;;;;5030727;28;20085;-33
2024/03/18 02:43:26;;;;;;;7.90;3.17;;;;;;;;;;5029621;28;20028;-33
2024/03/18 02:45:53;;;;;;;7.25;3.00;;;;;;;;;;5030778;28;20030;-32
2024/03/18 02:48:20;;;;;;;7.78;2.97;;;;;;;;;;5030522;28;20044;-32
2024/03/18 02:50:47;;;;;;;6.78;3.08;;;;;;;;;;5031105;28;20099;-35
2024/03/18 02:53:14;;;;;;;7.78;2.80;;;;;;;;;;5031226;28;20029;-36
2024/03/18 02:55:41;;;;;;;5.93;2.75;;;;;;;;;;5031124;28;20056;-35
2024/03/18 02:58:08;;;;;;;9.20;2.97;;;;;;;;;;5031134;28;20037;-34
2024/03/18 03:00:35;;;;;;;7.35;2.85;;;;;;;;;;5031083;28;20045;-33
2024/03/18 03:03:02;;;;;;;12.23;3.13;;;;;;;;;;5031223;28;20464;-32
2024/03/18 03:05:29;;;;;;;5.38;2.53;;;;;;;;;;5031414;28;20361;-33
2024/03/18 03:07:56;;;;;;;5.25;2.63;;;;;;;;;;5030901;28;20045;-32
2024/03/18 03:10:25;;;;;;;8.00;2.65;;;;;;;;;;5031118;28;20026;-35
2024/03/18 03:12:52;;;;;;;7.93;2.67;;;;;;;;;;5031176;28;20026;-34
2024/03/18 03:15:20;;;;;;;5.22;2.78;;;;;;;;;;5030898;28;20502;-36
2024/03/18 03:17:47;;;;;;;5.22;2.53;;;;;;;;;;5031075;28;20029;-33
2024/03/18 03:20:18;;;;;;;6.15;2.58;;;;;;;;;;5031001;28;20033;-34
2024/03/18 03:22:46;;;;;;;4.15;2.28;;;;;;;;;;5030957;28;20037;-33
2024/03/18 03:25:13;;;;;;;5.60;2.38;;;;;;;;;;5030974;28;20164;-33
2024/03/18 03:27:40;;;;;;;5.75;2.47;;;;;;;;;;5029390;28;20399;-35
2024/03/18 03:30:07;;;;;;;5.30;2.22;;;;;;;;;;5031120;28;20551;-35
2024/03/18 03:32:34;;;;;;;4.60;2.28;;;;;;;;;;5029283;28;20156;-33
2024/03/18 03:35:01;;;;;;;7.90;2.67;;;;;;;;;;5030735;28;20021;-35
2024/03/18 03:37:28;;;;;;;8.90;2.45;;;;;;;;;;5030866;28;20069;-35
2024/03/18 03:39:55;;;;;;;4.85;2.22;;;;;;;;;;5030938;28;20017;-35
2024/03/18 03:42:22;;;;;;;4.28;2.22;;;;;;;;;;5030802;28;20096;-35
2024/03/18 03:44:49;;;;;;;3.15;2.00;;;;;;;;;;5030888;28;20503;-35
2024/03/18 03:47:16;;;;;;;4.00;2.10;;;;;;;;;;5030258;28;20038;-33
2024/03/18 03:49:43;;;;;;;6.00;2.17;;;;;;;;;;5032804;28;20040;-35
2024/03/18 03:52:10;;;;;;;4.45;2.17;;;;;;;;;;5034475;28;20052;-35
2024/03/18 03:54:37;;;;;;;2.83;1.70;;;;;;;;;;5020770;28;20107;-33
2024/03/18 03:57:04;;;;;;;3.90;2.20;;;;;;;;;;5034210;28;20064;-38
2024/03/18 03:59:31;;;;;;;4.35;1.98;;;;;;;;;;5034300;28;20022;-35
2024/03/18 04:01:59;;;;;;;4.32;1.90;;;;;;;;;;5034150;28;20086;-39
2024/03/18 04:04:27;;;;;;;6.07;2.67;;;;;;;;;;5034140;28;20060;-35
2024/03/18 04:06:54;;;;;;;4.18;1.95;;;;;;;;;;5033904;28;20026;-35
2024/03/18 04:09:21;;;;;;;5.78;2.03;;;;;;;;;;5034076;28;20034;-35
2024/03/18 04:11:48;;;;;;;3.45;1.92;;;;;;;;;;5034187;28;20260;-33
2024/03/18 04:14:16;;;;;;;4.05;1.90;;;;;;;;;;5032406;28;20037;-34
2024/03/18 04:16:43;;;;;;;3.78;1.80;;;;;;;;;;5033653;28;20076;-35
2024/03/18 04:19:10;;;;;;;5.03;2.25;;;;;;;;;;5033796;28;20037;-32
2024/03/18 04:21:37;;;;;;;3.35;1.80;;;;;;;;;;5033736;28;20072;-33
2024/03/18 04:24:08;;;;;;;4.05;2.00;;;;;;;;;;5033854;28;20040;-33
2024/03/18 04:26:36;;;;;;;3.08;1.77;;;;;;;;;;5033371;28;20141;-33
2024/03/18 04:29:06;;;;;;;3.70;1.70;;;;;;;;;;5033611;28;20111;-32
2024/03/18 04:31:33;;;;;;;5.40;1.50;;;;;;;;;;5033525;28;20117;-33
2024/03/18 04:34:00;;;;;;;4.75;1.50;;;;;;;;;;5033555;28;20033;-33
2024/03/18 04:36:27;;;;;;;4.47;1.83;;;;;;;;;;5033179;28;20430;-32
2024/03/18 04:38:54;;;;;;;4.03;1.80;;;;;;;;;;5033283;28;20029;-32
2024/03/18 04:41:21;;;;;;;4.40;2.03;;;;;;;;;;5033248;28;20100;-32
2024/03/18 04:43:48;;;;;;;4.35;1.70;;;;;;;;;;5033448;28;20026;-32
2024/03/18 04:46:14;;;;;;;2.58;1.65;;;;;;;;;;5033249;28;20036;-33
2024/03/18 04:48:41;;;;;;;3.80;1.75;;;;;;;;;;5033219;28;20042;-34
2024/03/18 04:51:08;;;;;;;3.95;1.92;;;;;;;;;;5031732;28;20033;-35
2024/03/18 04:53:35;;;;;;;4.47;1.75;;;;;;;;;;5031712;28;20029;-35
2024/03/18 04:56:02;;;;;;;4.55;1.70;;;;;;;;;;5072224;28;20036;-33
2024/03/18 04:58:29;;;;;;;3.58;1.65;;;;;;;;;;5073113;28;20028;-32
2024/03/18 05:00:56;;;;;;;5.38;1.92;;;;;;;;;;5070910;28;20078;-33
2024/03/18 05:03:23;;;;;;;4.50;1.70;;;;;;;;;;5072907;28;20467;-33
2024/03/18 05:05:51;;;;;;;3.97;2.13;;;;;;;;;;5072870;28;20028;-32
2024/03/18 05:08:18;;;;;;;3.33;1.83;;;;;;;;;;5072953;28;20033;-33
2024/03/18 05:10:45;;;;;;;4.60;1.65;;;;;;;;;;5072814;28;20017;-34
2024/03/18 05:13:12;;;;;;;2.95;1.80;;;;;;;;;;5072746;28;20031;-32
2024/03/18 05:15:39;;;;;;;4.03;1.75;;;;;;;;;;5072559;28;20108;-33
2024/03/18 05:18:06;;;;;;;4.55;1.98;;;;;;;;;;5072820;28;20031;-34
2024/03/18 05:20:33;;;;;;;3.75;1.90;;;;;;;;;;5072519;28;20020;-36
2024/03/18 05:23:00;;;;;;;4.88;1.60;;;;;;;;;;5054555;28;20482;-32
2024/03/18 05:25:28;;;;;;;3.65;1.90;;;;;;;;;;5072534;28;20051;-35
2024/03/18 05:27:55;;;;;;;3.78;1.70;;;;;;;;;;5072559;28;20041;-34
2024/03/18 05:30:22;;;;;;;5.88;1.70;;;;;;;;;;5072393;28;20028;-38
2024/03/18 05:32:49;;;;;;;2.33;1.50;;;;;;;;;;5072689;28;20498;-33
2024/03/18 05:35:16;;;;;;;3.47;1.40;;;;;;;;;;5054170;28;20055;-33
2024/03/18 05:37:43;;;;;;;3.63;1.58;;;;;;;;;;5072240;28;20478;-32
2024/03/18 05:40:10;;;;;;;3.55;1.67;;;;;;;;;;5072089;28;20056;-33
2024/03/18 05:42:37;;;;;;;2.28;1.27;;;;;;;;;;5058238;28;20052;-33
2024/03/18 05:45:04;;;;;;;2.33;1.23;;;;;;;;;;5052891;28;20035;-33
2024/03/18 05:47:31;;;;;;;3.50;1.58;;;;;;;;;;5071791;28;20032;-33
2024/03/18 05:49:58;;;;;;;3.20;1.30;;;;;;;;;;5072217;28;20410;-35
2024/03/18 05:52:25;;;;;;;4.28;1.70;;;;;;;;;;5072015;28;20127;-37
2024/03/18 05:54:52;;;;;;;4.68;1.73;;;;;;;;;;5071641;28;20052;-35
2024/03/18 05:57:19;;;;;;;3.53;1.58;;;;;;;;;;5071742;28;20032;-32
2024/03/18 05:59:46;;;;;;;2.13;1.30;;;;;;;;;;5071836;28;20517;-33
2024/03/18 06:02:13;;;;;;;2.95;1.42;;;;;;;;;;5066314;28;20032;-32
2024/03/18 06:04:40;;;;;;;3.38;1.50;;;;;;;;;;5053847;28;20036;-33
2024/03/18 06:07:07;;;;;;;2.05;1.40;;;;;;;;;;5071377;28;20052;-33
2024/03/18 06:09:34;;;;;;;3.33;1.63;;;;;;;;;;5071912;28;20055;-32
2024/03/18 06:12:01;;;;;;;5.20;1.60;;;;;;;;;;5071535;28;20108;-32
2024/03/18 06:14:29;;;;;;;2.58;1.52;;;;;;;;;;5071444;28;20036;-33
2024/03/18 06:16:56;;;;;;;7.13;1.25;;;;;;;;;;5071273;28;20028;-33
2024/03/18 06:19:24;;;;;;;1.55;1.10;;;;;;;;;;5071714;28;20095;-33
2024/03/18 06:21:51;;;;;;;2.17;1.30;;;;;;;;;;5071419;28;20449;-33
2024/03/18 06:24:20;;;;;;;2.83;1.30;;;;;;;;;;5071484;28;20033;-34
2024/03/18 06:26:47;;;;;;;4.32;1.40;;;;;;;;;;5071273;28;20037;-32
2024/03/18 06:29:14;;;;;;;1.80;1.38;;;;;;;;;;5071434;28;20075;-33
2024/03/18 06:31:41;;;;;;;1.60;1.20;;;;;;;;;;5069998;28;20494;-35
2024/03/18 06:34:09;;;;;;;5.63;1.35;;;;;;;;;;5071454;28;20033;-35
2024/03/18 06:36:36;;;;;;;3.50;1.25;;;;;;;;;;5071245;28;20493;-35
2024/03/18 06:39:03;;;;;;;1.88;1.30;;;;;;;;;;5071309;28;20036;-35
2024/03/18 06:41:31;;;;;;;3.65;1.45;;;;;;;;;;5071423;28;20047;-36
2024/03/18 06:43:58;;;;;;;2.47;1.17;;;;;;;;;;5071363;28;20494;-35
2024/03/18 06:46:25;;;;;;;2.75;1.48;;;;;;;;;;5071256;28;20033;-35
2024/03/18 06:48:52;;;;;;;2.65;1.30;;;;;;;;;;5071093;28;20040;-36
2024/03/18 06:51:19;;;;;;;2.08;1.25;;;;;;;;;;5071280;28;20044;-34
2024/03/18 06:53:46;;;;;;;3.17;1.27;;;;;;;;;;5070791;28;20422;-35
2024/03/18 06:56:13;;;;;;;2.35;1.25;;;;;;;;;;5071104;28;20126;-38
2024/03/18 06:58:40;;;;;;;2.75;1.20;;;;;;;;;;5071108;28;20040;-35
2024/03/18 07:01:09;;;;;;;2.55;1.20;;;;;;;;;;5071059;28;20017;-35
2024/03/18 07:03:37;;;;;;;2.05;1.35;;;;;;;;;;5071091;28;20029;-32
2024/03/18 07:06:04;;;;;;;4.18;1.40;;;;;;;;;;5071027;28;20037;-33
2024/03/18 07:08:32;;;;;;;3.35;1.50;;;;;;;;;;5070956;28;20082;-33
2024/03/18 07:10:59;;;;;;;3.67;1.10;;;;;;;;;;5071023;28;20045;-32
2024/03/18 07:13:26;;;;;;;3.22;1.40;;;;;;;;;;5071085;28;20031;-32
2024/03/18 07:15:55;;;;;;;2.85;1.38;;;;;;;;;;5070653;28;20112;-32
2024/03/18 07:18:22;;;;;;;3.13;1.40;;;;;;;;;;5070077;28;20082;-32
2024/03/18 07:20:49;;;;;;;2.45;1.58;;;;;;;;;;5070987;28;20033;-32
2024/03/18 07:23:17;;;;;;;4.97;1.70;;;;;;;;;;5070958;28;20107;-33
2024/03/18 07:25:44;;;;;;;1.40;1.05;;;;;;;;;;5074427;28;20040;-32
2024/03/18 07:28:11;;;;;;;2.55;1.17;;;;;;;;;;5074838;28;20043;-32
2024/03/18 07:30:38;;;;;;;2.50;0.93;;;;;;;;;;5074739;28;20032;-32
2024/03/18 07:33:06;;;;;;;3.45;1.20;;;;;;;;;;5074640;28;20660;-35
2024/03/18 07:35:33;;;;;;;2.47;1.20;;;;;;;;;;5074485;28;20058;-35
2024/03/18 07:38:00;;;;;;;2.28;1.20;;;;;;;;;;5074780;28;20079;-35
2024/03/18 07:40:27;;;;;;;3.45;1.00;;;;;;;;;;5074746;28;20025;-35
2024/03/18 07:42:54;;;;;;;2.92;1.42;;;;;;;;;;5074496;28;20130;-35
2024/03/18 07:45:21;;;;;;;3.55;1.38;;;;;;;;;;5074497;28;20083;-35
2024/03/18 07:47:48;;;;;;;3.30;1.10;;;;;;;;;;5074310;28;20058;-35
2024/03/18 07:50:15;;;;;;;2.13;1.02;;;;;;;;;;5074443;28;20028;-35
2024/03/18 07:52:42;;;;;;;2.38;1.10;;;;;;;;;;5074248;28;20052;-35
2024/03/18 07:55:10;;;;;;;3.47;1.00;;;;;;;;;;5074040;28;20056;-34
2024/03/18 07:57:37;;;;;;;3.03;1.10;;;;;;;;;;5056086;28;20040;-35
2024/03/18 08:00:06;;;;;;;2.67;1.27;;;;;;;;;;5074290;28;20029;-35
2024/03/18 08:02:33;;;;;;;1.90;1.10;;;;;;;;;;5074144;28;20039;-34
2024/03/18 08:05:00;;;;;;;2.38;1.00;;;;;;;;;;5072785;28;20036;-35
2024/03/18 08:07:27;;;;;;;1.60;1.00;;;;;;;;;;5074039;28;20061;-35
2024/03/18 08:09:55;;;;;;;2.70;1.10;;;;;;;;;;5074007;28;20023;-35
2024/03/18 08:12:23;;;;;;;1.88;1.10;;;;;;;;;;5073826;28;20043;-35
2024/03/18 08:14:49;;;;;;;4.10;1.23;;;;;;;;;;5073929;28;20054;-35
2024/03/18 08:17:19;;;;;;;3.42;1.13;;;;;;;;;;5073895;28;20063;-35
2024/03/18 08:19:46;;;;;;;3.58;1.10;;;;;;;;;;5073902;28;20453;-35
2024/03/18 08:22:16;;;;;;;5.25;1.42;;;;;;;;;;5073889;28;20027;-34
2024/03/18 08:24:46;;;;;;;3.45;1.20;;;;;;;;;;5073918;28;20498;-35
2024/03/18 08:27:13;;;;;;;1.50;1.02;;;;;;;;;;5073511;28;20062;-36
2024/03/18 08:29:43;;;;;;;1.48;0.98;;;;;;;;;;5073829;28;20017;-34
2024/03/18 08:32:10;;;;;;;3.28;0.90;;;;;;;;;;5073764;28;20089;-33
2024/03/18 08:34:39;;;;;;;3.92;1.17;;;;;;;;;;5073616;28;20024;-33
2024/03/18 08:37:06;;;;;;;5.40;1.00;;;;;;;;;;5055480;28;20058;-32
2024/03/18 08:39:34;;;;;;;2.03;1.00;;;;;;;;;;5073569;28;20052;-32
2024/03/18 08:42:01;;;;;;;2.97;1.13;;;;;;;;;;5073284;28;20033;-33
2024/03/18 08:44:28;;;;;;;2.42;0.90;;;;;;;;;;5085589;28;20349;-34
2024/03/18 08:46:55;;;;;;;3.88;0.85;;;;;;;;;;5088857;28;20554;-35
2024/03/18 08:49:23;;;;;;;3.88;0.90;;;;;;;;;;5073085;28;20406;-32
2024/03/18 08:51:50;;;;;;;2.67;0.85;;;;;;;;;;5073187;28;20429;-32
2024/03/18 08:54:18;;;;;;;3.85;0.90;;;;;;;;;;5073041;28;20048;-33
2024/03/18 08:56:47;;;;;;;2.55;0.90;;;;;;;;;;5073104;28;20024;-32
2024/03/18 08:59:14;;;;;;;3.30;0.90;;;;;;;;;;5073192;28;20024;-33
2024/03/18 09:01:41;;;;;;;3.70;0.90;;;;;;;;;;5072508;28;20036;-35
2024/03/18 09:04:09;;;;;;;3.80;0.80;;;;;;;;;;5072500;28;20112;-35
2024/03/18 09:06:36;;;;;;;1.75;0.60;;;;;;;;;;5054272;28;20081;-33
2024/03/18 09:09:06;;;;;;;2.08;0.70;;;;;;;;;;5072078;28;20044;-35
2024/03/18 09:11:35;;;;;;;5.40;0.70;;;;;;;;;;5072686;28;20398;-35
2024/03/18 09:14:03;;;;;;;3.70;0.73;;;;;;;;;;5072929;28;20020;-35
2024/03/18 09:16:33;;;;;;;4.78;0.70;;;;;;;;;;5072549;28;20036;-35
2024/03/18 09:19:01;;;;;;;3.20;0.90;;;;;;;;;;5072684;28;20050;-35
2024/03/18 09:21:28;;;;;;;4.43;0.60;;;;;;;;;;5054192;28;20040;-35
2024/03/18 09:23:55;;;;;;;4.82;0.60;;;;;;;;;;5073097;28;20025;-35
2024/03/18 09:26:22;;;;;;;4.00;0.65;;;;;;;;;;5057483;28;20761;-35
2024/03/18 09:28:49;;;;;;;3.15;0.50;;;;;;;;;;5054216;28;20041;-32
2024/03/18 09:31:16;;;;;;;3.78;0.52;;;;;;;;;;5052211;28;20048;-35
2024/03/18 09:33:43;;;;;;;3.65;0.70;;;;;;;;;;5062313;28;20032;-34
2024/03/18 09:36:10;;;;;;;2.25;0.60;;;;;;;;;;5070962;28;20077;-32
2024/03/18 09:38:37;;;;;;;6.32;0.80;;;;;;;;;;5072478;28;20070;-32
2024/03/18 09:41:05;;;;;;;3.60;0.57;;;;;;;;;;5071993;28;20024;-32
2024/03/18 09:43:35;;;;;;;2.00;0.68;;;;;;;;;;5068975;28;20043;-33
2024/03/18 09:46:04;;;;;;;3.80;0.70;;;;;;;;;;5072049;28;20032;-33
2024/03/18 09:48:34;;;;;;;4.47;0.70;;;;;;;;;;5071818;28;20500;-33
2024/03/18 09:51:03;;;;;;;5.90;0.85;;;;;;;;;;5071915;28;20033;-32
2024/03/18 09:53:30;;;;;;;7.70;1.65;;;;;;;;;;5071915;28;20033;-32
2024/03/18 09:55:57;;;;;;;4.68;0.90;;;;;;;;;;5071869;28;20074;-32
2024/03/18 09:58:24;;;;;;;9.30;1.20;;;;;;;;;;5072092;28;20039;-32
2024/03/18 10:00:51;;;;;;;5.53;1.20;;;;;;;;;;5072039;28;20029;-32
2024/03/18 10:03:19;;;;;;;11.93;1.25;;;;;;;;;;5072068;28;20087;-35
2024/03/18 10:05:47;;;;;;;8.20;1.00;;;;;;;;;;5071926;28;20451;-34
2024/03/18 10:08:15;;;;;;;8.30;1.20;;;;;;;;;;5071880;28;20044;-35
2024/03/18 10:10:46;;;;;;;9.05;1.27;;;;;;;;;;5071867;28;20103;-35
2024/03/18 10:13:13;;;;;;;10.27;1.33;;;;;;;;;;5071384;28;20059;-34
2024/03/18 10:15:40;;;;;;;15.70;1.25;;;;;;;;;;5071778;28;20030;-35
2024/03/18 10:18:12;;;;;;;11.15;1.40;;;;;;;;;;5071851;28;20036;-35
2024/03/18 10:20:39;;;;;;;5.97;0.77;;;;;;;;;;5070715;28;20120;-35
2024/03/18 10:23:09;;;;;;;9.20;1.10;;;;;;;;;;5071426;28;20039;-35
2024/03/18 10:25:36;;;;;;;6.18;0.70;;;;;;;;;;5071654;28;20067;-35
2024/03/18 10:28:07;;;;;;;5.50;1.00;;;;;;;;;;5071670;28;20494;-34
2024/03/18 10:30:34;;;;;;;9.50;0.80;;;;;;;;;;5071625;28;20494;-35
2024/03/18 10:33:05;;;;;;;8.80;1.00;;;;;;;;;;5071215;28;20021;-35
2024/03/18 10:35:34;;;;;;;7.75;1.15;;;;;;;;;;5071478;28;20032;-37
2024/03/18 10:38:05;;;;;;;2.58;0.70;;;;;;;;;;5071505;28;20473;-34
2024/03/18 10:40:36;;;;;;;6.88;0.80;;;;;;;;;;5071611;28;20379;-35
2024/03/18 10:43:05;;;;;;;3.53;0.90;;;;;;;;;;5071049;28;20118;-34
2024/03/18 10:45:32;;;;;;;7.05;1.00;;;;;;;;;;5071180;28;20032;-35
2024/03/18 10:48:03;;;;;;;13.77;1.20;;;;;;;;;;5071392;28;20048;-34
2024/03/18 10:50:30;;;;;;;5.88;0.98;;;;;;;;;;5071491;28;20033;-35
2024/03/18 10:52:58;;;;;;;5.93;1.05;;;;;;;;;;5071188;28;20557;-35
2024/03/18 10:55:26;;;;;;;10.05;1.65;;;;;;;;;;5071103;28;20059;-34
2024/03/18 10:57:57;;;;;;;8.98;1.27;;;;;;;;;;5071341;28;20037;-35
2024/03/18 11:00:25;;;;;;;11.43;1.30;;;;;;;;;;5074564;28;20028;-36
2024/03/18 11:03:03;;;;;;;8.57;0.93;;;;;;;;;;5074818;28;20028;-38
2024/03/18 11:05:31;;;;;;;5.00;0.85;;;;;;;;;;5075389;28;20044;-34
2024/03/18 11:08:02;;;;;;;3.45;0.70;;;;;;;;;;5073454;28;20071;-32
2024/03/18 11:10:30;;;;;;;8.57;1.10;;;;;;;;;;5075431;28;20035;-32
2024/03/18 11:13:07;;;;;;;5.47;0.70;;;;;;;;;;5075237;28;20063;-34
2024/03/18 11:15:34;;;;;;;8.23;1.20;;;;;;;;;;5080227;28;20032;-35
2024/03/18 11:18:07;;;;;;;7.25;0.90;;;;;;;;;;5085717;28;20586;-35
2024/03/18 11:20:47;;;;;;;11.85;1.15;;;;;;;;;;5085690;28;20103;-32
2024/03/18 11:23:18;;;;;;;4.22;0.80;;;;;;;;;;5085054;28;20490;-35
2024/03/18 11:25:45;;;;;;;10.43;1.00;;;;;;;;;;5082129;28;20063;-35
2024/03/18 11:28:12;;;;;;;5.65;1.02;;;;;;;;;;5083909;28;20032;-34
2024/03/18 11:30:42;;;;;;;4.03;0.90;;;;;;;;;;5085654;28;20069;-32
2024/03/18 11:33:13;;;;;;;8.07;0.98;;;;;;;;;;5084575;28;20077;-34
2024/03/18 11:35:44;;;;;;;4.63;1.00;;;;;;;;;;5083344;28;20021;-33
2024/03/18 11:38:16;;;;;;;10.88;1.35;;;;;;;;;;5076967;28;20054;-34
2024/03/18 11:40:43;;;;;;;7.90;1.13;;;;;;;;;;5080824;28;20033;-32
2024/03/18 11:43:10;;;;;;;5.15;0.90;;;;;;;;;;5081239;28;20048;-34
2024/03/18 11:45:37;;;;;;;12.38;1.15;;;;;;;;;;5077569;28;20067;-36
2024/03/18 11:48:05;;;;;;;6.45;1.10;;;;;;;;;;5082558;28;20068;-35
2024/03/18 11:50:34;;;;;;;11.13;1.23;;;;;;;;;;5080364;28;20067;-35
2024/03/18 11:53:04;;;;;;;13.00;0.90;;;;;;;;;;5059050;28;20028;-35
2024/03/18 11:55:36;;;;;;;9.57;1.00;;;;;;;;;;5077022;28;20040;-33
2024/03/18 11:58:03;;;;;;;6.87;0.90;;;;;;;;;;5084242;28;20490;-33
2024/03/18 12:00:34;;;;;;;10.23;1.00;;;;;;;;;;5061143;28;20295;-32
2024/03/18 12:03:02;;;;;;;9.18;1.05;;;;;;;;;;5083366;28;20112;-35
2024/03/18 12:05:30;;;;;;;5.13;1.00;;;;;;;;;;5084765;28;20027;-35
2024/03/18 12:07:57;;;;;;;8.07;1.00;;;;;;;;;;5084039;28;20044;-35
2024/03/18 12:10:24;;;;;;;8.38;0.80;;;;;;;;;;5076246;28;20032;-33
2024/03/18 12:12:52;;;;;;;5.10;0.70;;;;;;;;;;5073536;28;20035;-33
2024/03/18 12:15:18;;;;;;;2.42;0.70;;;;;;;;;;5073593;28;20029;-33
2024/03/18 12:17:45;;;;;;;6.78;0.73;;;;;;;;;;5074199;28;20047;-35
2024/03/18 12:20:23;;;;;;;10.50;1.45;;;;;;;;;;5072447;28;20166;-35
2024/03/18 12:23:04;;;;;;;7.00;1.13;;;;;;;;;;5073836;28;20040;-34
2024/03/18 12:31:25;;;;;;;10.32;0.95;;;;;;;;;;5031724;28;20029;-32
2024/03/18 12:33:53;;;;;;;5.05;0.63;;;;;;;;;;5031547;28;20825;-33
2024/03/18 12:36:20;;;;;;;3.90;0.80;;;;;;;;;;5052325;28;20494;-32
2024/03/18 12:38:48;;;;;;;3.33;0.70;;;;;;;;;;5073797;28;20028;-33
2024/03/18 12:41:23;;;;;;;6.43;0.85;;;;;;;;;;5073849;28;20025;-33
2024/03/18 12:43:52;;;;;;;7.55;0.90;;;;;;;;;;5073781;28;20033;-33
2024/03/18 12:46:20;;;;;;;5.82;0.70;;;;;;;;;;5073578;28;20060;-33
2024/03/18 12:48:47;;;;;;;6.35;0.80;;;;;;;;;;5073621;28;20037;-33
2024/03/18 12:51:19;;;;;;;5.07;0.60;;;;;;;;;;5073638;28;20444;-33
2024/03/18 12:53:46;;;;;;;5.25;0.98;;;;;;;;;;5073339;28;20032;-34
2024/03/18 12:56:14;;;;;;;6.00;0.82;;;;;;;;;;5073398;28;20064;-33
2024/03/18 12:58:41;;;;;;;9.10;0.68;;;;;;;;;;5073375;28;20474;-33
2024/03/18 13:01:09;;;;;;;5.25;1.02;;;;;;;;;;5073367;28;20047;-33
2024/03/18 13:03:37;;;;;;;7.40;0.90;;;;;;;;;;5073419;28;20595;-33
2024/03/18 13:06:07;;;;;;;8.65;0.93;;;;;;;;;;5073214;28;20028;-33
2024/03/18 13:08:34;;;;;;;4.07;0.60;;;;;;;;;;5073166;28;20032;-33
2024/03/18 13:11:03;;;;;;;7.88;0.63;;;;;;;;;;5073144;28;20032;-34
2024/03/18 13:13:30;;;;;;;8.02;0.80;;;;;;;;;;5073034;28;20039;-32
2024/03/18 13:15:58;;;;;;;4.63;0.60;;;;;;;;;;5073117;28;20114;-34
2024/03/18 13:18:25;;;;;;;4.20;0.63;;;;;;;;;;5073058;28;20038;-34
2024/03/18 13:20:53;;;;;;;4.35;0.80;;;;;;;;;;5072819;28;20032;-33
2024/03/18 13:23:26;;;;;;;6.03;0.70;;;;;;;;;;5072329;28;20037;-33
2024/03/18 13:25:53;;;;;;;7.80;0.70;;;;;;;;;;5087316;28;20032;-34
2024/03/18 13:28:23;;;;;;;6.97;0.80;;;;;;;;;;5072784;28;20033;-34
2024/03/18 13:30:51;;;;;;;10.60;1.23;;;;;;;;;;5072814;28;20479;-34
2024/03/18 13:33:21;;;;;;;5.95;0.70;;;;;;;;;;5072821;28;20127;-34
2024/03/18 13:35:50;;;;;;;5.60;0.85;;;;;;;;;;5072557;28;20028;-33
2024/03/18 13:38:17;;;;;;;12.90;1.10;;;;;;;;;;5072589;28;20068;-33
2024/03/18 13:40:44;;;;;;;8.95;0.70;;;;;;;;;;5072497;28;20368;-34
2024/03/18 13:43:21;;;;;;;9.50;1.15;;;;;;;;;;5072644;28;20028;-33
2024/03/18 13:45:52;;;;;;;7.90;0.88;;;;;;;;;;5072362;28;20036;-33
2024/03/18 13:48:19;;;;;;;12.02;1.20;;;;;;;;;;5072345;28;20029;-33
2024/03/18 13:50:46;;;;;;;5.20;0.75;;;;;;;;;;5072461;28;20024;-34
2024/03/18 13:53:13;;;;;;;6.95;0.98;;;;;;;;;;5072373;28;20036;-33
2024/03/18 13:55:40;;;;;;;8.73;0.80;;;;;;;;;;5072088;28;20379;-34
2024/03/18 13:58:07;;;;;;;7.40;0.82;;;;;;;;;;5072364;28;20025;-32
2024/03/18 14:00:36;;;;;;;8.63;1.10;;;;;;;;;;5072141;28;20028;-33
2024/03/18 14:03:05;;;;;;;5.72;0.60;;;;;;;;;;5072091;28;20028;-33
2024/03/18 14:05:32;;;;;;;4.50;0.65;;;;;;;;;;5072066;28;20028;-33
2024/03/18 14:07:59;;;;;;;3.38;0.52;;;;;;;;;;5071974;28;20049;-33
2024/03/18 14:10:26;;;;;;;5.32;0.93;;;;;;;;;;5072065;28;20099;-32
2024/03/18 14:12:53;;;;;;;15.13;1.60;;;;;;;;;;5072112;28;20526;-33
2024/03/18 14:15:23;;;;;;;14.15;1.15;;;;;;;;;;5071750;28;20091;-33
2024/03/18 14:17:50;;;;;;;8.02;1.35;;;;;;;;;;5071959;28;20055;-33
2024/03/18 14:20:17;;;;;;;8.15;1.17;;;;;;;;;;5087486;28;20407;-33
2024/03/18 14:22:44;;;;;;;7.45;0.80;;;;;;;;;;5071960;28;20378;-33
2024/03/18 14:25:19;;;;;;;7.32;0.82;;;;;;;;;;5071842;28;20037;-33
2024/03/18 14:28:05;;;;;;;10.02;1.10;;;;;;;;;;5071742;28;20063;-33
2024/03/18 14:30:33;;;;;;;9.63;1.00;;;;;;;;;;5071852;28;20086;-33
2024/03/18 14:33:00;;;;;;;8.68;0.90;;;;;;;;;;5071566;28;20036;-33
2024/03/18 14:35:28;;;;;;;10.25;1.20;;;;;;;;;;5071710;28;20035;-33
2024/03/18 14:37:56;;;;;;;3.40;0.88;;;;;;;;;;5071643;28;20414;-33
2024/03/18 14:40:26;;;;;;;10.07;1.20;;;;;;;;;;5071731;28;20107;-33
2024/03/18 14:42:53;;;;;;;2.78;0.70;;;;;;;;;;5071613;28;20441;-33
2024/03/18 14:45:20;;;;;;;6.68;1.20;;;;;;;;;;5071483;28;20043;-33
2024/03/18 14:47:48;;;;;;;5.75;0.63;;;;;;;;;;5071563;28;20112;-33
2024/03/18 14:50:15;;;;;;;9.73;0.80;;;;;;;;;;5071608;28;20048;-33